This is the latest recevied weather packets stored in our database for station/object KD9JJA. If no packets are shown the sender has not sent any weather packets the latest 10 day(s).
| Time | Temp. | Humidity | Pressure | Rain* | Wind** | Luminosity | Snow |
|---|---|---|---|---|---|---|---|
| 1777650470 | 11.11° C | 73% | 1017.3 hPa | 0 mm | - | 352 W/m² | - |
| 1777650167 | 11.11° C | 75% | 1017.3 hPa | 0 mm | - | 96 W/m² | - |
| 1777649864 | 11.67° C | 74% | 1017.1 hPa | 0 mm | - | 50 W/m² | - |
| 1777649561 | 11.67° C | 75% | 1016.9 hPa | 0 mm | - | 113 W/m² | - |
| 1777649252 | 11.67° C | 75% | 1016.8 hPa | 0 mm | - | 122 W/m² | - |
| 1777648949 | 11.11° C | 74% | 1016.8 hPa | 0 mm | - | 140 W/m² | - |
| 1777648646 | 11.11° C | 78% | 1016.8 hPa | 0 mm | - | 175 W/m² | - |
| 1777648342 | 11.11° C | 76% | 1016.6 hPa | 0 mm | - | 163 W/m² | - |
| 1777648039 | 11.11° C | 77% | 1016.6 hPa | 0 mm | - | 100 W/m² | - |
| 1777647735 | 11.67° C | 78% | 1016.5 hPa | 0 mm | - | 150 W/m² | - |
| 1777647431 | 11.11° C | 81% | 1016.5 hPa | 0 mm | - | 167 W/m² | - |
| 1777647130 | 11.11° C | 78% | 1016.6 hPa | 0 mm | - | 133 W/m² | - |
| 1777646825 | 11.11° C | 79% | 1016.3 hPa | 0 mm | - | 59 W/m² | - |
| 1777646521 | 11.11° C | 80% | 1016 hPa | 0 mm | - | 181 W/m² | - |
| 1777646216 | 11.11° C | 80% | 1016.3 hPa | 0 mm | - | 85 W/m² | - |
| 1777645915 | 11.11° C | 83% | 1015.9 hPa | 0 mm | - | 135 W/m² | - |
| 1777645611 | 11.11° C | 78% | 1016.2 hPa | 0 mm | - | 116 W/m² | - |
| 1777645307 | 11.11° C | 82% | 1015.9 hPa | 0 mm | - | 110 W/m² | - |
| 1777645003 | 11.11° C | 78% | 1016.3 hPa | 0 mm | - | 174 W/m² | - |
| 1777644701 | 10.56° C | 80% | 1015.9 hPa | 0 mm | - | 213 W/m² | - |
| 1777644397 | 11.11° C | 81% | 1016.1 hPa | 0 mm | - | 211 W/m² | - |
| 1777644094 | 10.56° C | 84% | 1015.8 hPa | 0 mm | - | 210 W/m² | - |
| 1777643791 | 10.56° C | 83% | 1015.9 hPa | 0 mm | - | 260 W/m² | - |
| 1777643488 | 10.56° C | 83% | 1015.8 hPa | 0 mm | - | 44 W/m² | - |
| 1777643184 | 10.56° C | 85% | 1015.8 hPa | 0 mm | - | 44 W/m² | - |
* Rain latest hour (hover to see other rain measurements)
** Current wind speed in m/s (hover to see current wind gust speed)